sensor_id;sensor_type;location;lat;lon;timestamp;pressure;altitude;pressure_sealevel;temperature;humidity
1480;BME280;732;51.698;4.886;2023-04-27T00:00:07;102200.50;;;-0.21;70.15
1480;BME280;732;51.698;4.886;2023-04-27T00:02:37;102182.03;;;-0.39;70.46
1480;BME280;732;51.698;4.886;2023-04-27T00:05:08;102032.31;;;-1.37;70.62
1480;BME280;732;51.698;4.886;2023-04-27T00:07:37;102181.66;;;-0.49;70.73
1480;BME280;732;51.698;4.886;2023-04-27T00:10:07;102175.53;;;-0.49;71.21
1480;BME280;732;51.698;4.886;2023-04-27T00:12:36;102101.50;;;-0.97;72.22
1480;BME280;732;51.698;4.886;2023-04-27T00:15:06;102036.75;;;-1.38;71.95
1480;BME280;732;51.698;4.886;2023-04-27T00:17:34;102190.56;;;-0.51;72.28
1480;BME280;732;51.698;4.886;2023-04-27T00:20:04;102090.44;;;-1.23;72.66
1480;BME280;732;51.698;4.886;2023-04-27T00:22:36;101998.13;;;-1.74;72.64
1480;BME280;732;51.698;4.886;2023-04-27T00:25:05;102210.03;;;-0.54;72.91
1480;BME280;732;51.698;4.886;2023-04-27T00:27:34;101987.13;;;-1.82;71.98
1480;BME280;732;51.698;4.886;2023-04-27T00:30:06;102080.72;;;-1.03;71.74
1480;BME280;732;51.698;4.886;2023-04-27T00:32:35;102050.88;;;-1.21;71.44
1480;BME280;732;51.698;4.886;2023-04-27T00:35:04;102225.00;;;-0.19;71.09
1480;BME280;732;51.698;4.886;2023-04-27T00:37:33;102087.91;;;-1.25;71.90
1480;BME280;732;51.698;4.886;2023-04-27T00:40:06;102197.84;;;-0.39;71.06
1480;BME280;732;51.698;4.886;2023-04-27T00:42:35;101950.81;;;-1.93;70.98
1480;BME280;732;51.698;4.886;2023-04-27T00:45:04;102173.81;;;-0.50;70.82
1480;BME280;732;51.698;4.886;2023-04-27T00:47:34;102182.72;;;-0.53;70.66
1480;BME280;732;51.698;4.886;2023-04-27T00:50:03;102038.00;;;-1.28;70.35
1480;BME280;732;51.698;4.886;2023-04-27T00:52:35;102099.53;;;-0.94;70.28
1480;BME280;732;51.698;4.886;2023-04-27T00:55:07;102246.19;;;-0.03;70.06
1480;BME280;732;51.698;4.886;2023-04-27T00:57:35;101995.44;;;-1.55;70.25
1480;BME280;732;51.698;4.886;2023-04-27T01:00:06;102230.16;;;-0.16;69.90
1480;BME280;732;51.698;4.886;2023-04-27T01:02:36;102170.47;;;-0.54;70.40
1480;BME280;732;51.698;4.886;2023-04-27T01:05:07;101992.28;;;-1.62;69.98
1480;BME280;732;51.698;4.886;2023-04-27T01:07:37;102179.97;;;-0.50;70.19
1480;BME280;732;51.698;4.886;2023-04-27T01:10:08;102168.09;;;-0.58;70.46
1480;BME280;732;51.698;4.886;2023-04-27T01:12:37;102163.84;;;-0.61;70.35
1480;BME280;732;51.698;4.886;2023-04-27T01:15:07;102075.97;;;-1.14;70.47
1480;BME280;732;51.698;4.886;2023-04-27T01:17:36;102094.19;;;-1.10;69.99
1480;BME280;732;51.698;4.886;2023-04-27T01:20:08;102155.88;;;-0.79;70.43
1480;BME280;732;51.698;4.886;2023-04-27T01:22:37;102124.94;;;-0.93;70.70
1480;BME280;732;51.698;4.886;2023-04-27T01:25:08;102243.69;;;-0.24;70.52
1480;BME280;732;51.698;4.886;2023-04-27T01:27:36;102133.47;;;-0.87;70.66
1480;BME280;732;51.698;4.886;2023-04-27T01:30:06;102193.81;;;-0.64;70.42
1480;BME280;732;51.698;4.886;2023-04-27T01:32:36;102223.78;;;-0.47;70.14
1480;BME280;732;51.698;4.886;2023-04-27T01:35:06;102054.53;;;-1.61;70.97
1480;BME280;732;51.698;4.886;2023-04-27T01:37:35;102230.41;;;-0.57;71.65
1480;BME280;732;51.698;4.886;2023-04-27T01:40:05;101984.09;;;-2.11;71.32
1480;BME280;732;51.698;4.886;2023-04-27T01:42:35;102085.44;;;-1.47;71.25
1480;BME280;732;51.698;4.886;2023-04-27T01:45:09;102235.06;;;-0.63;71.56
1480;BME280;732;51.698;4.886;2023-04-27T01:47:38;102164.00;;;-1.01;71.71
1480;BME280;732;51.698;4.886;2023-04-27T01:50:08;102127.91;;;-1.35;72.60
1480;BME280;732;51.698;4.886;2023-04-27T01:52:38;101960.47;;;-2.32;72.25
1480;BME280;732;51.698;4.886;2023-04-27T01:55:07;102122.25;;;-1.28;72.46
1480;BME280;732;51.698;4.886;2023-04-27T01:57:38;102034.69;;;-1.87;72.26
1480;BME280;732;51.698;4.886;2023-04-27T02:00:08;102131.94;;;-1.28;72.05
1480;BME280;732;51.698;4.886;2023-04-27T02:02:51;102112.31;;;-1.40;71.61
1480;BME280;732;51.698;4.886;2023-04-27T02:05:23;102009.66;;;-1.96;71.79
1480;BME280;732;51.698;4.886;2023-04-27T02:07:52;102225.06;;;-0.73;71.52
1480;BME280;732;51.698;4.886;2023-04-27T02:10:22;102169.97;;;-0.97;71.59
1480;BME280;732;51.698;4.886;2023-04-27T02:12:55;102126.81;;;-1.31;71.13
1480;BME280;732;51.698;4.886;2023-04-27T02:15:26;102200.31;;;-0.88;71.61
1480;BME280;732;51.698;4.886;2023-04-27T02:17:54;102041.72;;;-1.87;71.55
1480;BME280;732;51.698;4.886;2023-04-27T02:20:23;102143.75;;;-1.18;72.09
1480;BME280;732;51.698;4.886;2023-04-27T02:22:52;102207.03;;;-0.83;71.96
1480;BME280;732;51.698;4.886;2023-04-27T02:25:25;102132.94;;;-1.31;72.10
1480;BME280;732;51.698;4.886;2023-04-27T02:27:55;102130.94;;;-1.26;72.04
1480;BME280;732;51.698;4.886;2023-04-27T02:30:24;102097.50;;;-1.43;72.44
1480;BME280;732;51.698;4.886;2023-04-27T02:32:57;102036.53;;;-1.89;71.99
1480;BME280;732;51.698;4.886;2023-04-27T02:35:27;102189.09;;;-0.94;72.81
1480;BME280;732;51.698;4.886;2023-04-27T02:37:58;102096.44;;;-1.38;72.69
1480;BME280;732;51.698;4.886;2023-04-27T02:40:27;102129.66;;;-1.17;72.65
1480;BME280;732;51.698;4.886;2023-04-27T02:42:58;101990.06;;;-2.08;72.50
1480;BME280;732;51.698;4.886;2023-04-27T02:45:26;102130.88;;;-1.24;72.58
1480;BME280;732;51.698;4.886;2023-04-27T02:47:57;102134.34;;;-1.23;72.55
1480;BME280;732;51.698;4.886;2023-04-27T02:50:26;102185.50;;;-0.91;72.59
1480;BME280;732;51.698;4.886;2023-04-27T02:52:54;102201.13;;;-0.88;73.06
1480;BME280;732;51.698;4.886;2023-04-27T02:55:23;102010.09;;;-2.05;72.21
1480;BME280;732;51.698;4.886;2023-04-27T02:57:51;102087.84;;;-1.61;72.49
1480;BME280;732;51.698;4.886;2023-04-27T03:00:22;102133.72;;;-1.29;72.62
1480;BME280;732;51.698;4.886;2023-04-27T03:02:50;102204.06;;;-0.94;71.97
1480;BME280;732;51.698;4.886;2023-04-27T03:05:19;102203.22;;;-0.95;72.20
1480;BME280;732;51.698;4.886;2023-04-27T03:07:47;102097.47;;;-1.60;71.68
1480;BME280;732;51.698;4.886;2023-04-27T03:10:16;102202.81;;;-1.04;72.58
1480;BME280;732;51.698;4.886;2023-04-27T03:12:44;101944.97;;;-2.76;72.61
1480;BME280;732;51.698;4.886;2023-04-27T03:15:13;102180.31;;;-1.50;73.31
1480;BME280;732;51.698;4.886;2023-04-27T03:17:43;102152.66;;;-1.59;73.33
1480;BME280;732;51.698;4.886;2023-04-27T03:20:12;101957.66;;;-2.65;72.69
1480;BME280;732;51.698;4.886;2023-04-27T03:22:41;102170.16;;;-1.38;73.18
1480;BME280;732;51.698;4.886;2023-04-27T03:25:11;101971.34;;;-2.59;72.84
1480;BME280;732;51.698;4.886;2023-04-27T03:27:40;102200.31;;;-1.27;72.73
1480;BME280;732;51.698;4.886;2023-04-27T03:30:12;101991.28;;;-2.55;72.40
1480;BME280;732;51.698;4.886;2023-04-27T03:32:42;102210.28;;;-1.14;71.99
1480;BME280;732;51.698;4.886;2023-04-27T03:35:13;102212.13;;;-1.16;72.08
1480;BME280;732;51.698;4.886;2023-04-27T03:37:44;102210.38;;;-1.16;72.66
1480;BME280;732;51.698;4.886;2023-04-27T03:40:13;102088.44;;;-1.93;72.19
1480;BME280;732;51.698;4.886;2023-04-27T03:42:42;102143.19;;;-1.63;72.52
1480;BME280;732;51.698;4.886;2023-04-27T03:45:10;101942.56;;;-2.81;72.69
1480;BME280;732;51.698;4.886;2023-04-27T03:47:39;102157.91;;;-1.59;73.05
1480;BME280;732;51.698;4.886;2023-04-27T03:50:09;102222.22;;;-1.26;72.92
1480;BME280;732;51.698;4.886;2023-04-27T03:52:38;101974.78;;;-2.77;73.26
1480;BME280;732;51.698;4.886;2023-04-27T03:55:07;102220.59;;;-1.29;73.42
1480;BME280;732;51.698;4.886;2023-04-27T03:57:38;102221.47;;;-1.28;72.99
1480;BME280;732;51.698;4.886;2023-04-27T04:00:09;102226.78;;;-1.30;73.19
1480;BME280;732;51.698;4.886;2023-04-27T04:02:38;102224.16;;;-1.30;73.19
1480;BME280;732;51.698;4.886;2023-04-27T04:05:09;102117.28;;;-1.91;72.89
1480;BME280;732;51.698;4.886;2023-04-27T04:07:40;102069.84;;;-2.28;72.96
1480;BME280;732;51.698;4.886;2023-04-27T04:10:10;102019.75;;;-2.64;73.42
1480;BME280;732;51.698;4.886;2023-04-27T04:12:40;102226.78;;;-1.49;73.59
1480;BME280;732;51.698;4.886;2023-04-27T04:15:09;101971.41;;;-3.00;74.56
1480;BME280;732;51.698;4.886;2023-04-27T04:17:38;102044.00;;;-2.58;74.52
1480;BME280;732;51.698;4.886;2023-04-27T04:20:11;101995.00;;;-2.79;74.64
1480;BME280;732;51.698;4.886;2023-04-27T04:22:41;102234.00;;;-1.33;75.20
1480;BME280;732;51.698;4.886;2023-04-27T04:25:11;102182.41;;;-1.57;74.63
1480;BME280;732;51.698;4.886;2023-04-27T04:27:41;102232.47;;;-1.20;74.30
1480;BME280;732;51.698;4.886;2023-04-27T04:30:10;102239.38;;;-1.17;73.87
1480;BME280;732;51.698;4.886;2023-04-27T04:32:39;102216.25;;;-1.30;74.00
1480;BME280;732;51.698;4.886;2023-04-27T04:35:10;102033.53;;;-2.39;74.18
1480;BME280;732;51.698;4.886;2023-04-27T04:37:39;102169.50;;;-1.63;74.50
1480;BME280;732;51.698;4.886;2023-04-27T04:40:09;102233.06;;;-1.13;74.06
1480;BME280;732;51.698;4.886;2023-04-27T04:42:38;102227.44;;;-1.25;74.25
1480;BME280;732;51.698;4.886;2023-04-27T04:45:09;102205.09;;;-1.35;74.57
1480;BME280;732;51.698;4.886;2023-04-27T04:47:37;102219.59;;;-1.26;74.52
1480;BME280;732;51.698;4.886;2023-04-27T04:50:07;102144.41;;;-1.70;74.64
1480;BME280;732;51.698;4.886;2023-04-27T04:52:38;102198.78;;;-1.31;74.60
1480;BME280;732;51.698;4.886;2023-04-27T04:55:07;102018.53;;;-2.36;75.00
1480;BME280;732;51.698;4.886;2023-04-27T04:57:36;102252.91;;;-0.87;74.41
1480;BME280;732;51.698;4.886;2023-04-27T05:00:06;102067.75;;;-2.00;74.52
1480;BME280;732;51.698;4.886;2023-04-27T05:02:38;102216.16;;;-0.90;74.17
1480;BME280;732;51.698;4.886;2023-04-27T05:05:10;102249.94;;;-0.62;74.31
1480;BME280;732;51.698;4.886;2023-04-27T05:07:40;102223.47;;;-0.78;74.12
1480;BME280;732;51.698;4.886;2023-04-27T05:10:08;102258.97;;;-0.48;73.57
1480;BME280;732;51.698;4.886;2023-04-27T05:12:37;102144.28;;;-1.11;73.55
1480;BME280;732;51.698;4.886;2023-04-27T05:15:06;102257.19;;;-0.30;73.86
1480;BME280;732;51.698;4.886;2023-04-27T05:17:34;102259.53;;;-0.24;73.60
1480;BME280;732;51.698;4.886;2023-04-27T05:20:04;101994.09;;;-1.81;73.62
1480;BME280;732;51.698;4.886;2023-04-27T05:22:34;102032.88;;;-1.48;73.16
1480;BME280;732;51.698;4.886;2023-04-27T05:25:05;102112.25;;;-1.02;73.06
1480;BME280;732;51.698;4.886;2023-04-27T05:27:33;101998.97;;;-1.74;73.20
1480;BME280;732;51.698;4.886;2023-04-27T05:30:02;102160.31;;;-0.62;73.44
1480;BME280;732;51.698;4.886;2023-04-27T05:32:32;102261.84;;;-0.00;72.87
1480;BME280;732;51.698;4.886;2023-04-27T05:35:04;102119.38;;;-0.86;72.74
1480;BME280;732;51.698;4.886;2023-04-27T05:37:32;102082.47;;;-1.04;72.72
1480;BME280;732;51.698;4.886;2023-04-27T05:40:02;102271.47;;;0.18;73.67
1480;BME280;732;51.698;4.886;2023-04-27T05:42:32;102268.47;;;0.26;73.79
1480;BME280;732;51.698;4.886;2023-04-27T05:45:00;102270.75;;;0.50;73.77
1480;BME280;732;51.698;4.886;2023-04-27T05:47:29;102274.53;;;0.78;73.43
1480;BME280;732;51.698;4.886;2023-04-27T05:49:58;102251.63;;;1.10;72.25
1480;BME280;732;51.698;4.886;2023-04-27T05:52:26;102150.03;;;0.84;70.34
1480;BME280;732;51.698;4.886;2023-04-27T05:54:57;102182.28;;;1.21;69.66
1480;BME280;732;51.698;4.886;2023-04-27T05:57:29;102220.59;;;1.60;68.79
1480;BME280;732;51.698;4.886;2023-04-27T05:59:57;102046.28;;;0.50;68.35
1480;BME280;732;51.698;4.886;2023-04-27T06:02:26;102173.09;;;1.12;68.14
1480;BME280;732;51.698;4.886;2023-04-27T06:04:58;102198.91;;;1.23;68.99
1480;BME280;732;51.698;4.886;2023-04-27T06:07:27;102114.84;;;0.67;69.58
1480;BME280;732;51.698;4.886;2023-04-27T06:09:55;102044.16;;;0.25;69.19
1480;BME280;732;51.698;4.886;2023-04-27T06:12:24;102035.81;;;0.16;69.48
1480;BME280;732;51.698;4.886;2023-04-27T06:14:54;102046.44;;;0.47;70.46
1480;BME280;732;51.698;4.886;2023-04-27T06:17:22;102273.94;;;1.99;69.27
1480;BME280;732;51.698;4.886;2023-04-27T06:19:51;102070.41;;;0.90;69.24
1480;BME280;732;51.698;4.886;2023-04-27T06:22:19;102105.84;;;1.32;69.18
1480;BME280;732;51.698;4.886;2023-04-27T06:24:47;102068.63;;;1.35;68.48
1480;BME280;732;51.698;4.886;2023-04-27T06:27:16;102272.19;;;2.86;68.09
1480;BME280;732;51.698;4.886;2023-04-27T06:29:46;102280.59;;;3.35;67.32
1480;BME280;732;51.698;4.886;2023-04-27T06:32:21;102217.72;;;3.50;64.94
1480;BME280;732;51.698;4.886;2023-04-27T06:34:51;102261.03;;;4.03;63.45
1480;BME280;732;51.698;4.886;2023-04-27T06:37:19;102077.69;;;3.02;63.16
1480;BME280;732;51.698;4.886;2023-04-27T06:39:49;102179.44;;;3.67;63.57
1480;BME280;732;51.698;4.886;2023-04-27T06:42:17;102239.06;;;4.01;63.64
1480;BME280;732;51.698;4.886;2023-04-27T06:44:46;102273.19;;;4.20;64.21
1480;BME280;732;51.698;4.886;2023-04-27T06:47:25;102178.69;;;3.65;64.00
1480;BME280;732;51.698;4.886;2023-04-27T06:49:54;102186.66;;;3.77;63.69
1480;BME280;732;51.698;4.886;2023-04-27T06:52:22;102267.13;;;4.31;63.99
1480;BME280;732;51.698;4.886;2023-04-27T06:54:51;102112.41;;;3.37;64.03
1480;BME280;732;51.698;4.886;2023-04-27T06:57:19;102194.66;;;3.90;63.87
1480;BME280;732;51.698;4.886;2023-04-27T06:59:48;102079.41;;;3.28;64.26
1480;BME280;732;51.698;4.886;2023-04-27T07:02:19;102194.22;;;4.09;64.23
1480;BME280;732;51.698;4.886;2023-04-27T07:04:52;102255.47;;;4.47;63.94
1480;BME280;732;51.698;4.886;2023-04-27T07:07:23;102198.03;;;4.18;62.97
1480;BME280;732;51.698;4.886;2023-04-27T07:09:51;102202.81;;;4.39;62.76
1480;BME280;732;51.698;4.886;2023-04-27T07:12:20;102217.28;;;4.61;62.66
1480;BME280;732;51.698;4.886;2023-04-27T07:14:48;102197.94;;;4.58;61.77
1480;BME280;732;51.698;4.886;2023-04-27T07:17:17;102243.56;;;5.02;62.69
1480;BME280;732;51.698;4.886;2023-04-27T07:19:46;102265.78;;;5.38;62.32
1480;BME280;732;51.698;4.886;2023-04-27T07:22:16;102258.91;;;5.47;62.09
1480;BME280;732;51.698;4.886;2023-04-27T07:24:46;102210.72;;;5.39;61.69
1480;BME280;732;51.698;4.886;2023-04-27T07:27:16;102270.47;;;5.95;61.42
1480;BME280;732;51.698;4.886;2023-04-27T07:29:47;102197.13;;;5.66;60.46
1480;BME280;732;51.698;4.886;2023-04-27T07:32:16;102235.44;;;5.88;60.60
1480;BME280;732;51.698;4.886;2023-04-27T07:34:44;102061.00;;;4.77;60.04
1480;BME280;732;51.698;4.886;2023-04-27T07:37:21;102238.50;;;6.06;60.05
1480;BME280;732;51.698;4.886;2023-04-27T07:39:50;102028.16;;;4.89;58.76
1480;BME280;732;51.698;4.886;2023-04-27T07:42:19;102112.88;;;5.54;59.28
1480;BME280;732;51.698;4.886;2023-04-27T07:44:49;102079.97;;;5.55;58.66
1480;BME280;732;51.698;4.886;2023-04-27T07:47:18;102063.16;;;5.66;57.97
1480;BME280;732;51.698;4.886;2023-04-27T07:49:47;102201.72;;;6.79;57.29
1480;BME280;732;51.698;4.886;2023-04-27T07:52:16;102121.94;;;6.65;57.02
1480;BME280;732;51.698;4.886;2023-04-27T07:54:46;102194.88;;;7.30;56.26
1480;BME280;732;51.698;4.886;2023-04-27T07:57:14;102252.16;;;7.91;55.04
1480;BME280;732;51.698;4.886;2023-04-27T07:59:43;102133.16;;;7.45;54.39
1480;BME280;732;51.698;4.886;2023-04-27T08:02:11;102251.66;;;8.59;53.65
1480;BME280;732;51.698;4.886;2023-04-27T08:04:46;102154.66;;;8.67;51.60
1480;BME280;732;51.698;4.886;2023-04-27T08:07:16;102201.69;;;9.59;49.77
1480;BME280;732;51.698;4.886;2023-04-27T08:09:50;102062.25;;;9.41;48.34
1480;BME280;732;51.698;4.886;2023-04-27T08:12:19;102180.59;;;10.60;47.27
1480;BME280;732;51.698;4.886;2023-04-27T08:14:48;102244.47;;;11.30;47.10
1480;BME280;732;51.698;4.886;2023-04-27T08:17:16;102245.09;;;11.60;45.18
1480;BME280;732;51.698;4.886;2023-04-27T08:19:45;102125.25;;;11.31;44.50
1480;BME280;732;51.698;4.886;2023-04-27T08:22:14;102119.88;;;11.49;44.02
1480;BME280;732;51.698;4.886;2023-04-27T08:24:42;102067.00;;;11.58;43.85
1480;BME280;732;51.698;4.886;2023-04-27T08:27:12;102048.53;;;11.63;43.18
1480;BME280;732;51.698;4.886;2023-04-27T08:29:44;102226.41;;;12.63;41.47
1480;BME280;732;51.698;4.886;2023-04-27T08:32:14;102033.00;;;11.48;41.93
1480;BME280;732;51.698;4.886;2023-04-27T08:34:43;102209.59;;;12.61;40.44
1480;BME280;732;51.698;4.886;2023-04-27T08:37:12;102188.75;;;12.72;41.03
1480;BME280;732;51.698;4.886;2023-04-27T08:39:40;102183.53;;;12.70;40.09
1480;BME280;732;51.698;4.886;2023-04-27T08:42:11;102241.25;;;13.27;40.34
1480;BME280;732;51.698;4.886;2023-04-27T08:44:42;102100.06;;;12.70;38.99
1480;BME280;732;51.698;4.886;2023-04-27T08:47:14;102033.34;;;12.31;39.72
1480;BME280;732;51.698;4.886;2023-04-27T08:49:42;102233.88;;;13.62;39.67
1480;BME280;732;51.698;4.886;2023-04-27T08:52:13;102121.44;;;12.88;39.63
1480;BME280;732;51.698;4.886;2023-04-27T08:54:42;102237.41;;;13.62;39.88
1480;BME280;732;51.698;4.886;2023-04-27T08:57:13;102182.97;;;13.34;38.68
1480;BME280;732;51.698;4.886;2023-04-27T08:59:42;102230.81;;;13.40;38.30
1480;BME280;732;51.698;4.886;2023-04-27T09:02:18;102028.16;;;12.38;39.54
1480;BME280;732;51.698;4.886;2023-04-27T09:04:47;102144.06;;;13.20;39.32
1480;BME280;732;51.698;4.886;2023-04-27T09:07:17;102146.59;;;13.22;38.35
1480;BME280;732;51.698;4.886;2023-04-27T09:09:46;102156.53;;;13.38;38.23
1480;BME280;732;51.698;4.886;2023-04-27T09:12:19;102125.13;;;12.79;36.78
1480;BME280;732;51.698;4.886;2023-04-27T09:14:57;102128.56;;;12.97;39.18
1480;BME280;732;51.698;4.886;2023-04-27T09:17:27;102158.72;;;13.34;38.95
1480;BME280;732;51.698;4.886;2023-04-27T09:20:03;102053.44;;;12.61;35.13
1480;BME280;732;51.698;4.886;2023-04-27T09:22:44;102189.41;;;12.65;35.62
1480;BME280;732;51.698;4.886;2023-04-27T09:25:23;102163.84;;;12.78;38.60
1480;BME280;732;51.698;4.886;2023-04-27T09:27:54;102219.19;;;13.56;37.74
1480;BME280;732;51.698;4.886;2023-04-27T09:30:25;102185.66;;;13.67;38.68
1480;BME280;732;51.698;4.886;2023-04-27T09:32:55;102173.38;;;13.65;36.14
1480;BME280;732;51.698;4.886;2023-04-27T09:35:26;102162.50;;;13.89;37.68
1480;BME280;732;51.698;4.886;2023-04-27T09:37:55;102197.78;;;14.44;36.53
1480;BME280;732;51.698;4.886;2023-04-27T09:40:28;102135.34;;;14.07;35.44
1480;BME280;732;51.698;4.886;2023-04-27T09:43:00;102159.38;;;14.25;35.87
1480;BME280;732;51.698;4.886;2023-04-27T09:45:31;102125.31;;;14.24;35.13
1480;BME280;732;51.698;4.886;2023-04-27T09:48:01;102198.66;;;14.76;35.76
1480;BME280;732;51.698;4.886;2023-04-27T09:50:32;102142.16;;;14.35;36.48
1480;BME280;732;51.698;4.886;2023-04-27T09:53:07;102179.63;;;14.69;34.73
1480;BME280;732;51.698;4.886;2023-04-27T09:55:40;102037.78;;;13.79;34.30
1480;BME280;732;51.698;4.886;2023-04-27T10:01:23;102130.28;;;14.44;34.21
1480;BME280;732;51.698;4.886;2023-04-27T10:04:07;102046.69;;;13.96;34.09
1480;BME280;732;51.698;4.886;2023-04-27T10:06:59;102174.69;;;14.73;33.69
1480;BME280;732;51.698;4.886;2023-04-27T10:09:41;102175.22;;;14.68;33.71
1480;BME280;732;51.698;4.886;2023-04-27T10:12:15;102164.94;;;14.64;33.04
1480;BME280;732;51.698;4.886;2023-04-27T10:14:50;102138.34;;;14.52;34.58
1480;BME280;732;51.698;4.886;2023-04-27T10:17:24;102050.88;;;13.99;32.80
1480;BME280;732;51.698;4.886;2023-04-27T10:19:59;102163.44;;;14.61;32.59
1480;BME280;732;51.698;4.886;2023-04-27T10:22:38;102169.44;;;14.48;31.87
1480;BME280;732;51.698;4.886;2023-04-27T10:25:16;102122.34;;;14.11;32.50
1480;BME280;732;51.698;4.886;2023-04-27T10:27:50;102152.63;;;14.30;34.73
1480;BME280;732;51.698;4.886;2023-04-27T10:30:23;102168.41;;;14.49;34.23
1480;BME280;732;51.698;4.886;2023-04-27T10:32:53;102125.91;;;14.43;33.72
1480;BME280;732;51.698;4.886;2023-04-27T10:35:32;102111.59;;;14.34;33.67
1480;BME280;732;51.698;4.886;2023-04-27T10:38:09;102028.97;;;13.85;32.43
1480;BME280;732;51.698;4.886;2023-04-27T10:40:38;102135.22;;;14.64;32.49
1480;BME280;732;51.698;4.886;2023-04-27T10:43:08;102013.66;;;13.86;34.02
1480;BME280;732;51.698;4.886;2023-04-27T10:45:43;102063.53;;;14.30;31.37
1480;BME280;732;51.698;4.886;2023-04-27T10:48:12;101994.06;;;13.92;33.71
1480;BME280;732;51.698;4.886;2023-04-27T10:50:44;102108.59;;;14.61;34.36
1480;BME280;732;51.698;4.886;2023-04-27T10:53:13;102168.25;;;15.05;34.37
1480;BME280;732;51.698;4.886;2023-04-27T10:55:42;102006.22;;;14.19;32.62
1480;BME280;732;51.698;4.886;2023-04-27T10:58:11;102024.03;;;14.37;34.47
1480;BME280;732;51.698;4.886;2023-04-27T11:00:42;102159.53;;;15.42;34.60
1480;BME280;732;51.698;4.886;2023-04-27T11:03:14;102117.38;;;14.86;29.96
1480;BME280;732;51.698;4.886;2023-04-27T11:05:46;102072.81;;;14.58;31.57
1480;BME280;732;51.698;4.886;2023-04-27T11:08:17;102113.78;;;14.85;33.28
1480;BME280;732;51.698;4.886;2023-04-27T11:10:48;102132.09;;;15.06;32.73
1480;BME280;732;51.698;4.886;2023-04-27T11:13:19;102071.19;;;14.72;33.31
1480;BME280;732;51.698;4.886;2023-04-27T11:15:51;102031.31;;;14.51;31.71
1480;BME280;732;51.698;4.886;2023-04-27T11:18:23;102103.31;;;15.14;31.56
1480;BME280;732;51.698;4.886;2023-04-27T11:20:53;102031.81;;;14.78;32.67
1480;BME280;732;51.698;4.886;2023-04-27T11:23:33;102104.84;;;15.31;32.91
1480;BME280;732;51.698;4.886;2023-04-27T11:26:09;102147.06;;;15.70;31.06
1480;BME280;732;51.698;4.886;2023-04-27T11:28:38;102019.06;;;14.87;32.64
1480;BME280;732;51.698;4.886;2023-04-27T11:31:08;102097.19;;;15.35;32.36
1480;BME280;732;51.698;4.886;2023-04-27T11:33:37;102134.56;;;15.69;32.61
1480;BME280;732;51.698;4.886;2023-04-27T11:36:15;102027.72;;;15.05;31.58
1480;BME280;732;51.698;4.886;2023-04-27T11:38:47;102074.28;;;15.46;32.87
1480;BME280;732;51.698;4.886;2023-04-27T11:41:16;102121.50;;;15.73;31.15
1480;BME280;732;51.698;4.886;2023-04-27T11:43:45;102094.16;;;15.68;31.77
1480;BME280;732;51.698;4.886;2023-04-27T11:46:20;102099.47;;;15.76;31.88
1480;BME280;732;51.698;4.886;2023-04-27T11:48:49;102048.72;;;15.48;33.05
1480;BME280;732;51.698;4.886;2023-04-27T11:51:17;102021.88;;;15.47;31.89
1480;BME280;732;51.698;4.886;2023-04-27T11:53:47;102110.28;;;16.21;30.34
1480;BME280;732;51.698;4.886;2023-04-27T11:56:17;102134.53;;;16.44;30.50
1480;BME280;732;51.698;4.886;2023-04-27T11:58:45;101976.34;;;15.50;31.35
1480;BME280;732;51.698;4.886;2023-04-27T12:01:14;101980.16;;;15.56;29.97
1480;BME280;732;51.698;4.886;2023-04-27T12:04:02;102114.41;;;16.17;32.90
1480;BME280;732;51.698;4.886;2023-04-27T12:06:31;101974.50;;;15.36;31.86
1480;BME280;732;51.698;4.886;2023-04-27T12:09:00;102044.53;;;15.91;31.81
1480;BME280;732;51.698;4.886;2023-04-27T12:11:33;102105.75;;;16.43;33.62
1480;BME280;732;51.698;4.886;2023-04-27T12:14:02;102089.09;;;16.25;31.90
1480;BME280;732;51.698;4.886;2023-04-27T12:16:34;102066.97;;;16.21;33.23
1480;BME280;732;51.698;4.886;2023-04-27T12:19:05;101982.75;;;15.79;33.26
1480;BME280;732;51.698;4.886;2023-04-27T12:21:34;101926.19;;;15.48;31.37
1480;BME280;732;51.698;4.886;2023-04-27T12:24:03;102095.72;;;16.59;32.44
1480;BME280;732;51.698;4.886;2023-04-27T12:26:31;102094.31;;;16.84;31.95
1480;BME280;732;51.698;4.886;2023-04-27T12:29:00;102063.88;;;16.82;29.90
1480;BME280;732;51.698;4.886;2023-04-27T12:31:30;102036.38;;;16.85;31.24
1480;BME280;732;51.698;4.886;2023-04-27T12:33:58;102102.06;;;17.38;30.75
1480;BME280;732;51.698;4.886;2023-04-27T12:36:29;101994.03;;;16.63;28.44
1480;BME280;732;51.698;4.886;2023-04-27T12:39:10;102014.66;;;16.79;29.80
1480;BME280;732;51.698;4.886;2023-04-27T12:41:39;102023.34;;;16.74;30.27
1480;BME280;732;51.698;4.886;2023-04-27T12:44:08;102090.28;;;17.24;29.93
1480;BME280;732;51.698;4.886;2023-04-27T12:46:37;101945.94;;;16.43;29.60
1480;BME280;732;51.698;4.886;2023-04-27T12:49:06;102053.81;;;17.05;30.56
1480;BME280;732;51.698;4.886;2023-04-27T12:51:36;101943.22;;;16.43;29.53
1480;BME280;732;51.698;4.886;2023-04-27T12:54:05;102034.50;;;17.14;29.17
1480;BME280;732;51.698;4.886;2023-04-27T12:56:37;101929.56;;;16.51;29.58
1480;BME280;732;51.698;4.886;2023-04-27T12:59:05;101898.63;;;16.39;27.75
1480;BME280;732;51.698;4.886;2023-04-27T13:01:36;102058.75;;;17.51;27.67
1480;BME280;732;51.698;4.886;2023-04-27T13:04:06;102061.00;;;17.76;27.89
1480;BME280;732;51.698;4.886;2023-04-27T13:06:36;101928.41;;;16.89;28.18
1480;BME280;732;51.698;4.886;2023-04-27T13:09:05;101931.13;;;16.96;27.43
1480;BME280;732;51.698;4.886;2023-04-27T13:11:33;101962.69;;;17.04;26.45
1480;BME280;732;51.698;4.886;2023-04-27T13:14:05;102058.44;;;17.68;27.65
1480;BME280;732;51.698;4.886;2023-04-27T13:16:33;102057.66;;;17.74;28.30
1480;BME280;732;51.698;4.886;2023-04-27T13:19:03;102020.94;;;17.49;27.94
1480;BME280;732;51.698;4.886;2023-04-27T13:21:31;102058.09;;;17.77;29.16
1480;BME280;732;51.698;4.886;2023-04-27T13:24:05;102049.19;;;17.97;28.72
1480;BME280;732;51.698;4.886;2023-04-27T13:26:34;101987.28;;;17.72;28.10
1480;BME280;732;51.698;4.886;2023-04-27T13:29:02;101938.72;;;17.49;27.77
1480;BME280;732;51.698;4.886;2023-04-27T13:31:31;101969.38;;;17.49;28.97
1480;BME280;732;51.698;4.886;2023-04-27T13:34:00;101882.66;;;16.79;27.89
1480;BME280;732;51.698;4.886;2023-04-27T13:36:35;101905.25;;;16.87;27.08
1480;BME280;732;51.698;4.886;2023-04-27T13:39:05;101994.78;;;17.63;28.16
1480;BME280;732;51.698;4.886;2023-04-27T13:41:34;102032.78;;;17.70;26.50
1480;BME280;732;51.698;4.886;2023-04-27T13:44:03;101872.94;;;16.63;27.98